sensor_id;sensor_type;location;lat;lon;timestamp;pressure;altitude;pressure_sealevel;temperature;humidity
73453;BME280;61687;56.232;43.854;2023-11-19T00:01:23;101754.41;;;-8.03;74.05
73453;BME280;61687;56.232;43.854;2023-11-19T00:03:49;101753.38;;;-8.02;74.32
73453;BME280;61687;56.232;43.854;2023-11-19T00:06:15;101754.59;;;-7.98;74.13
73453;BME280;61687;56.232;43.854;2023-11-19T00:08:42;101754.22;;;-7.95;73.86
73453;BME280;61687;56.232;43.854;2023-11-19T00:11:11;101754.81;;;-7.93;73.86
73453;BME280;61687;56.232;43.854;2023-11-19T00:13:41;101759.13;;;-7.92;73.92
73453;BME280;61687;56.232;43.854;2023-11-19T00:16:08;101750.91;;;-7.91;73.77
73453;BME280;61687;56.232;43.854;2023-11-19T00:18:35;101758.28;;;-7.93;74.13
73453;BME280;61687;56.232;43.854;2023-11-19T00:21:02;101752.78;;;-7.91;73.95
73453;BME280;61687;56.232;43.854;2023-11-19T00:23:28;101760.75;;;-7.91;74.22
73453;BME280;61687;56.232;43.854;2023-11-19T00:25:54;101755.84;;;-7.94;74.11
73453;BME280;61687;56.232;43.854;2023-11-19T00:28:20;101750.72;;;-7.96;73.93
73453;BME280;61687;56.232;43.854;2023-11-19T00:30:46;101745.59;;;-7.97;74.15
73453;BME280;61687;56.232;43.854;2023-11-19T00:33:12;101744.59;;;-8.03;74.12
73453;BME280;61687;56.232;43.854;2023-11-19T00:35:38;101746.00;;;-8.00;74.08
73453;BME280;61687;56.232;43.854;2023-11-19T00:38:04;101738.88;;;-8.07;74.36
73453;BME280;61687;56.232;43.854;2023-11-19T00:40:30;101742.56;;;-8.08;74.18
73453;BME280;61687;56.232;43.854;2023-11-19T00:42:56;101735.19;;;-8.12;74.09
73453;BME280;61687;56.232;43.854;2023-11-19T00:45:22;101733.78;;;-8.15;74.06
73453;BME280;61687;56.232;43.854;2023-11-19T00:47:49;101732.13;;;-8.16;74.52
73453;BME280;61687;56.232;43.854;2023-11-19T00:50:14;101732.53;;;-8.19;74.49
73453;BME280;61687;56.232;43.854;2023-11-19T00:52:41;101716.56;;;-8.19;74.34
73453;BME280;61687;56.232;43.854;2023-11-19T00:55:08;101715.34;;;-8.16;74.17
73453;BME280;61687;56.232;43.854;2023-11-19T00:57:33;101722.09;;;-8.14;74.08
73453;BME280;61687;56.232;43.854;2023-11-19T00:59:59;101726.19;;;-8.18;74.31
73453;BME280;61687;56.232;43.854;2023-11-19T01:02:25;101720.84;;;-8.18;74.01
73453;BME280;61687;56.232;43.854;2023-11-19T01:04:51;101721.69;;;-8.17;74.06
73453;BME280;61687;56.232;43.854;2023-11-19T01:07:18;101718.00;;;-8.16;74.18
73453;BME280;61687;56.232;43.854;2023-11-19T01:09:44;101709.19;;;-8.17;74.04
73453;BME280;61687;56.232;43.854;2023-11-19T01:12:09;101706.16;;;-8.21;74.00
73453;BME280;61687;56.232;43.854;2023-11-19T01:14:36;101714.97;;;-8.27;74.27
73453;BME280;61687;56.232;43.854;2023-11-19T01:17:02;101718.63;;;-8.21;74.18
73453;BME280;61687;56.232;43.854;2023-11-19T01:19:28;101720.66;;;-8.23;74.13
73453;BME280;61687;56.232;43.854;2023-11-19T01:21:55;101726.59;;;-8.28;74.26
73453;BME280;61687;56.232;43.854;2023-11-19T01:24:22;101721.50;;;-8.29;74.27
73453;BME280;61687;56.232;43.854;2023-11-19T01:26:48;101726.22;;;-8.31;74.39
73453;BME280;61687;56.232;43.854;2023-11-19T01:29:15;101724.16;;;-8.36;74.16
73453;BME280;61687;56.232;43.854;2023-11-19T01:31:42;101723.75;;;-8.40;74.24
73453;BME280;61687;56.232;43.854;2023-11-19T01:34:08;101716.41;;;-8.44;74.19
73453;BME280;61687;56.232;43.854;2023-11-19T01:36:34;101714.53;;;-8.44;74.31
73453;BME280;61687;56.232;43.854;2023-11-19T01:39:00;101710.25;;;-8.45;74.26
73453;BME280;61687;56.232;43.854;2023-11-19T01:41:27;101705.97;;;-8.53;74.53
73453;BME280;61687;56.232;43.854;2023-11-19T01:43:53;101698.84;;;-8.52;74.53
73453;BME280;61687;56.232;43.854;2023-11-19T01:46:20;101698.84;;;-8.52;74.49
73453;BME280;61687;56.232;43.854;2023-11-19T01:48:46;101704.31;;;-8.47;74.35
73453;BME280;61687;56.232;43.854;2023-11-19T01:51:13;101708.19;;;-8.43;74.15
73453;BME280;61687;56.232;43.854;2023-11-19T01:53:43;101708.84;;;-8.48;74.34
73453;BME280;61687;56.232;43.854;2023-11-19T01:56:13;101710.88;;;-8.50;74.45
73453;BME280;61687;56.232;43.854;2023-11-19T01:58:40;101705.78;;;-8.51;74.29
73453;BME280;61687;56.232;43.854;2023-11-19T02:01:07;101702.69;;;-8.48;74.42
73453;BME280;61687;56.232;43.854;2023-11-19T02:03:34;101705.16;;;-8.46;74.41
73453;BME280;61687;56.232;43.854;2023-11-19T02:06:02;101709.22;;;-8.44;74.47
73453;BME280;61687;56.232;43.854;2023-11-19T02:08:29;101719.84;;;-8.44;74.65
73453;BME280;61687;56.232;43.854;2023-11-19T02:10:56;101715.78;;;-8.46;74.54
73453;BME280;61687;56.232;43.854;2023-11-19T02:13:25;101707.63;;;-8.52;74.46
73453;BME280;61687;56.232;43.854;2023-11-19T02:15:53;101707.63;;;-8.58;74.68
73453;BME280;61687;56.232;43.854;2023-11-19T02:18:26;101708.03;;;-8.62;74.61
73453;BME280;61687;56.232;43.854;2023-11-19T02:20:58;101709.25;;;-8.64;74.52
73453;BME280;61687;56.232;43.854;2023-11-19T02:23:28;101718.66;;;-8.62;74.71
73453;BME280;61687;56.232;43.854;2023-11-19T02:28:35;101708.44;;;-8.65;74.64
73453;BME280;61687;56.232;43.854;2023-11-19T02:31:03;101705.97;;;-8.59;74.58
73453;BME280;61687;56.232;43.854;2023-11-19T02:33:31;101712.94;;;-8.58;74.47
73453;BME280;61687;56.232;43.854;2023-11-19T02:35:57;101708.84;;;-8.61;74.42
73453;BME280;61687;56.232;43.854;2023-11-19T02:38:23;101710.91;;;-8.63;74.81
73453;BME280;61687;56.232;43.854;2023-11-19T02:40:48;101707.63;;;-8.65;74.60
73453;BME280;61687;56.232;43.854;2023-11-19T02:43:15;101710.47;;;-8.67;74.62
73453;BME280;61687;56.232;43.854;2023-11-19T02:45:41;101706.78;;;-8.66;74.46
73453;BME280;61687;56.232;43.854;2023-11-19T02:48:08;101719.47;;;-8.68;74.56
73453;BME280;61687;56.232;43.854;2023-11-19T02:50:36;101721.31;;;-8.68;74.68
73453;BME280;61687;56.232;43.854;2023-11-19T02:53:02;101711.72;;;-8.76;74.51
73453;BME280;61687;56.232;43.854;2023-11-19T02:55:28;101707.59;;;-8.79;74.53
73453;BME280;61687;56.232;43.854;2023-11-19T02:57:59;101714.13;;;-8.81;74.42
73453;BME280;61687;56.232;43.854;2023-11-19T03:00:25;101705.16;;;-8.80;74.62
73453;BME280;61687;56.232;43.854;2023-11-19T03:03:08;101705.34;;;-8.82;74.50
73453;BME280;61687;56.232;43.854;2023-11-19T03:05:46;101709.84;;;-8.82;74.40
73453;BME280;61687;56.232;43.854;2023-11-19T03:08:13;101700.84;;;-8.81;74.47
73453;BME280;61687;56.232;43.854;2023-11-19T03:10:39;101703.50;;;-8.81;74.39
73453;BME280;61687;56.232;43.854;2023-11-19T03:13:05;101703.13;;;-8.85;74.75
73453;BME280;61687;56.232;43.854;2023-11-19T03:15:31;101696.78;;;-8.84;74.65
73453;BME280;61687;56.232;43.854;2023-11-19T03:17:57;101697.81;;;-8.78;74.77
73453;BME280;61687;56.232;43.854;2023-11-19T03:20:23;101697.00;;;-8.72;74.76
73453;BME280;61687;56.232;43.854;2023-11-19T03:22:51;101693.31;;;-8.71;74.80
73453;BME280;61687;56.232;43.854;2023-11-19T03:25:18;101691.69;;;-8.65;74.59
73453;BME280;61687;56.232;43.854;2023-11-19T03:27:45;101700.69;;;-8.66;74.73
73453;BME280;61687;56.232;43.854;2023-11-19T03:30:11;101702.09;;;-8.70;74.71
73453;BME280;61687;56.232;43.854;2023-11-19T03:32:38;101698.63;;;-8.71;74.69
73453;BME280;61687;56.232;43.854;2023-11-19T03:35:05;101694.53;;;-8.67;74.65
73453;BME280;61687;56.232;43.854;2023-11-19T03:37:35;101697.59;;;-8.70;74.70
73453;BME280;61687;56.232;43.854;2023-11-19T03:40:02;101700.25;;;-8.70;74.70
73453;BME280;61687;56.232;43.854;2023-11-19T03:42:30;101696.16;;;-8.72;74.75
73453;BME280;61687;56.232;43.854;2023-11-19T03:44:56;101703.94;;;-8.71;74.78
73453;BME280;61687;56.232;43.854;2023-11-19T03:47:22;101693.13;;;-8.69;74.69
73453;BME280;61687;56.232;43.854;2023-11-19T03:49:49;101699.44;;;-8.70;74.82
73453;BME280;61687;56.232;43.854;2023-11-19T03:52:16;101694.13;;;-8.64;74.55
73453;BME280;61687;56.232;43.854;2023-11-19T03:54:43;101697.81;;;-8.65;74.49
73453;BME280;61687;56.232;43.854;2023-11-19T03:57:09;101700.03;;;-8.62;74.28
73453;BME280;61687;56.232;43.854;2023-11-19T03:59:39;101709.66;;;-8.60;74.44
73453;BME280;61687;56.232;43.854;2023-11-19T04:02:05;101708.84;;;-8.61;74.29
73453;BME280;61687;56.232;43.854;2023-11-19T04:04:32;101712.53;;;-8.55;74.28
73453;BME280;61687;56.232;43.854;2023-11-19T04:07:00;101710.66;;;-8.48;74.30
73453;BME280;61687;56.232;43.854;2023-11-19T04:09:29;101709.03;;;-8.36;74.14
73453;BME280;61687;56.232;43.854;2023-11-19T04:11:59;101713.94;;;-8.26;74.03
73453;BME280;61687;56.232;43.854;2023-11-19T04:14:26;101709.19;;;-8.10;73.75
73453;BME280;61687;56.232;43.854;2023-11-19T04:16:53;101708.34;;;-7.97;73.51
73453;BME280;61687;56.232;43.854;2023-11-19T04:19:19;101713.50;;;-8.09;74.07
73453;BME280;61687;56.232;43.854;2023-11-19T04:21:45;101713.72;;;-8.11;74.21
73453;BME280;61687;56.232;43.854;2023-11-19T04:24:12;101712.25;;;-8.07;74.36
73453;BME280;61687;56.232;43.854;2023-11-19T04:26:44;101711.03;;;-8.04;74.09
73453;BME280;61687;56.232;43.854;2023-11-19T04:29:13;101723.09;;;-8.01;74.24
73453;BME280;61687;56.232;43.854;2023-11-19T04:31:40;101721.88;;;-7.99;74.41
73453;BME280;61687;56.232;43.854;2023-11-19T04:34:07;101724.13;;;-8.02;74.36
73453;BME280;61687;56.232;43.854;2023-11-19T04:36:33;101722.28;;;-8.02;74.35
73453;BME280;61687;56.232;43.854;2023-11-19T04:39:00;101722.91;;;-8.07;74.59
73453;BME280;61687;56.232;43.854;2023-11-19T04:41:26;101730.88;;;-8.07;74.66
73453;BME280;61687;56.232;43.854;2023-11-19T04:43:55;101725.97;;;-8.10;74.50
73453;BME280;61687;56.232;43.854;2023-11-19T04:46:22;101724.53;;;-8.19;74.94
73453;BME280;61687;56.232;43.854;2023-11-19T04:48:49;101724.53;;;-8.12;74.83
73453;BME280;61687;56.232;43.854;2023-11-19T04:51:16;101724.97;;;-8.15;74.50
73453;BME280;61687;56.232;43.854;2023-11-19T04:53:42;101727.63;;;-8.09;74.52
73453;BME280;61687;56.232;43.854;2023-11-19T04:56:09;101723.13;;;-8.15;74.71
73453;BME280;61687;56.232;43.854;2023-11-19T04:58:35;101730.88;;;-8.07;74.69
73453;BME280;61687;56.232;43.854;2023-11-19T05:01:05;101732.72;;;-8.00;74.68
73453;BME280;61687;56.232;43.854;2023-11-19T05:03:31;101730.84;;;-7.86;74.47
73453;BME280;61687;56.232;43.854;2023-11-19T05:05:58;101725.31;;;-7.85;74.21
73453;BME280;61687;56.232;43.854;2023-11-19T05:08:24;101738.19;;;-7.68;73.81
73453;BME280;61687;56.232;43.854;2023-11-19T05:10:51;101744.72;;;-7.64;73.33
73453;BME280;61687;56.232;43.854;2023-11-19T05:13:17;101745.34;;;-7.69;72.80
73453;BME280;61687;56.232;43.854;2023-11-19T05:15:43;101750.47;;;-7.67;71.96
73453;BME280;61687;56.232;43.854;2023-11-19T05:18:09;101753.75;;;-7.72;72.25
73453;BME280;61687;56.232;43.854;2023-11-19T05:20:35;101746.59;;;-7.71;72.21
73453;BME280;61687;56.232;43.854;2023-11-19T05:23:01;101758.63;;;-7.62;71.95
73453;BME280;61687;56.232;43.854;2023-11-19T05:25:27;101753.50;;;-7.57;71.47
73453;BME280;61687;56.232;43.854;2023-11-19T05:27:53;101755.78;;;-7.60;71.31
73453;BME280;61687;56.232;43.854;2023-11-19T05:30:19;101761.53;;;-7.64;71.65
73453;BME280;61687;56.232;43.854;2023-11-19T05:32:45;101756.41;;;-7.65;71.58
73453;BME280;61687;56.232;43.854;2023-11-19T05:35:12;101763.34;;;-7.57;71.11
73453;BME280;61687;56.232;43.854;2023-11-19T05:37:38;101759.06;;;-7.65;71.30
73453;BME280;61687;56.232;43.854;2023-11-19T05:40:05;101765.63;;;-7.74;71.56
73453;BME280;61687;56.232;43.854;2023-11-19T05:42:37;101771.34;;;-7.78;71.90
73453;BME280;61687;56.232;43.854;2023-11-19T05:45:03;101765.00;;;-7.70;71.77
73453;BME280;61687;56.232;43.854;2023-11-19T05:47:31;101769.25;;;-7.49;71.94
73453;BME280;61687;56.232;43.854;2023-11-19T05:49:57;101769.25;;;-7.49;71.46
73453;BME280;61687;56.232;43.854;2023-11-19T05:52:23;101767.63;;;-7.50;71.81
73453;BME280;61687;56.232;43.854;2023-11-19T05:54:49;101773.53;;;-7.41;71.46
73453;BME280;61687;56.232;43.854;2023-11-19T05:57:18;101768.59;;;-7.44;71.24
73453;BME280;61687;56.232;43.854;2023-11-19T05:59:49;101766.16;;;-7.39;71.06
73453;BME280;61687;56.232;43.854;2023-11-19T06:02:15;101764.50;;;-7.40;71.05
73453;BME280;61687;56.232;43.854;2023-11-19T06:04:42;101764.72;;;-7.48;71.44
73453;BME280;61687;56.232;43.854;2023-11-19T06:07:10;101765.38;;;-7.53;71.34
73453;BME280;61687;56.232;43.854;2023-11-19T06:09:35;101761.69;;;-7.58;71.50
73453;BME280;61687;56.232;43.854;2023-11-19T06:12:01;101762.91;;;-7.54;70.96
73453;BME280;61687;56.232;43.854;2023-11-19T06:14:28;101750.88;;;-7.70;71.33
73453;BME280;61687;56.232;43.854;2023-11-19T06:16:54;101754.13;;;-7.62;71.36
73453;BME280;61687;56.232;43.854;2023-11-19T06:19:19;101753.53;;;-7.64;71.09
73453;BME280;61687;56.232;43.854;2023-11-19T06:21:45;101758.81;;;-7.57;71.03
73453;BME280;61687;56.232;43.854;2023-11-19T06:24:11;101751.44;;;-7.55;70.66
73453;BME280;61687;56.232;43.854;2023-11-19T06:26:38;101753.28;;;-7.49;70.92
73453;BME280;61687;56.232;43.854;2023-11-19T06:29:04;101755.50;;;-7.45;70.25
73453;BME280;61687;56.232;43.854;2023-11-19T06:31:30;101761.44;;;-7.43;70.39
73453;BME280;61687;56.232;43.854;2023-11-19T06:33:56;101753.25;;;-7.42;69.94
73453;BME280;61687;56.232;43.854;2023-11-19T06:36:22;101755.88;;;-7.35;70.01
73453;BME280;61687;56.232;43.854;2023-11-19T06:38:48;101759.13;;;-7.26;69.86
73453;BME280;61687;56.232;43.854;2023-11-19T06:41:14;101758.50;;;-7.22;69.57
73453;BME280;61687;56.232;43.854;2023-11-19T06:43:40;101758.69;;;-7.23;68.80
73453;BME280;61687;56.232;43.854;2023-11-19T06:46:14;101756.25;;;-7.25;69.45
73453;BME280;61687;56.232;43.854;2023-11-19T06:48:40;101764.84;;;-7.23;68.87
73453;BME280;61687;56.232;43.854;2023-11-19T06:51:08;101760.16;;;-7.34;69.31
73453;BME280;61687;56.232;43.854;2023-11-19T06:53:34;101764.09;;;-7.37;69.22
73453;BME280;61687;56.232;43.854;2023-11-19T06:56:02;101768.38;;;-7.29;69.20
73453;BME280;61687;56.232;43.854;2023-11-19T06:58:35;101763.41;;;-7.19;68.89
73453;BME280;61687;56.232;43.854;2023-11-19T07:01:01;101773.66;;;-7.22;68.68
73453;BME280;61687;56.232;43.854;2023-11-19T07:03:27;101768.72;;;-7.19;68.00
73453;BME280;61687;56.232;43.854;2023-11-19T07:05:53;101772.41;;;-7.20;67.99
73453;BME280;61687;56.232;43.854;2023-11-19T07:08:21;101774.47;;;-7.22;68.05
73453;BME280;61687;56.232;43.854;2023-11-19T07:10:47;101768.88;;;-7.07;67.84
73453;BME280;61687;56.232;43.854;2023-11-19T07:13:13;101780.16;;;-7.11;68.18
73453;BME280;61687;56.232;43.854;2023-11-19T07:15:39;101772.34;;;-6.99;68.10
73453;BME280;61687;56.232;43.854;2023-11-19T07:18:05;101784.19;;;-6.88;67.78
73453;BME280;61687;56.232;43.854;2023-11-19T07:20:30;101775.44;;;-6.70;67.64
73453;BME280;61687;56.232;43.854;2023-11-19T07:22:58;101781.19;;;-6.67;67.48
73453;BME280;61687;56.232;43.854;2023-11-19T07:25:24;101784.00;;;-6.62;67.76
73453;BME280;61687;56.232;43.854;2023-11-19T07:27:51;101780.63;;;-6.50;67.36
73453;BME280;61687;56.232;43.854;2023-11-19T07:30:18;101787.31;;;-6.34;67.13
73453;BME280;61687;56.232;43.854;2023-11-19T07:32:44;101785.84;;;-6.30;66.51
73453;BME280;61687;56.232;43.854;2023-11-19T07:35:10;101782.16;;;-6.29;66.57
73453;BME280;61687;56.232;43.854;2023-11-19T07:37:36;101778.41;;;-6.21;66.51
73453;BME280;61687;56.232;43.854;2023-11-19T07:40:02;101759.66;;;-6.14;66.51
73453;BME280;61687;56.232;43.854;2023-11-19T07:42:30;101752.00;;;-6.11;66.74
73453;BME280;61687;56.232;43.854;2023-11-19T07:44:57;101760.63;;;-6.09;66.92
73453;BME280;61687;56.232;43.854;2023-11-19T07:47:22;101754.03;;;-5.87;65.84
73453;BME280;61687;56.232;43.854;2023-11-19T07:49:50;101752.75;;;-5.85;65.70
73453;BME280;61687;56.232;43.854;2023-11-19T07:52:16;101749.16;;;-5.72;66.04
73453;BME280;61687;56.232;43.854;2023-11-19T07:54:42;101748.88;;;-5.45;65.58
73453;BME280;61687;56.232;43.854;2023-11-19T07:57:08;101750.09;;;-5.29;64.78
73453;BME280;61687;56.232;43.854;2023-11-19T07:59:34;101746.72;;;-5.36;64.04
73453;BME280;61687;56.232;43.854;2023-11-19T08:01:59;101740.72;;;-5.50;64.54
73453;BME280;61687;56.232;43.854;2023-11-19T08:04:25;101731.72;;;-5.56;64.47
73453;BME280;61687;56.232;43.854;2023-11-19T08:06:53;101723.78;;;-5.63;63.88
73453;BME280;61687;56.232;43.854;2023-11-19T08:09:18;101718.81;;;-5.59;64.47
73453;BME280;61687;56.232;43.854;2023-11-19T08:11:44;101718.34;;;-5.37;64.45
73453;BME280;61687;56.232;43.854;2023-11-19T08:14:11;101710.31;;;-5.19;63.47
73453;BME280;61687;56.232;43.854;2023-11-19T08:16:39;101709.09;;;-5.23;63.52
73453;BME280;61687;56.232;43.854;2023-11-19T08:19:05;101710.47;;;-5.32;64.17
73453;BME280;61687;56.232;43.854;2023-11-19T08:21:31;101711.72;;;-5.35;63.94
73453;BME280;61687;56.232;43.854;2023-11-19T08:23:57;101707.28;;;-5.41;63.66
73453;BME280;61687;56.232;43.854;2023-11-19T08:26:23;101709.00;;;-5.47;63.04
73453;BME280;61687;56.232;43.854;2023-11-19T08:28:49;101715.38;;;-5.48;64.03
73453;BME280;61687;56.232;43.854;2023-11-19T08:31:15;101710.66;;;-5.15;63.72
73453;BME280;61687;56.232;43.854;2023-11-19T08:33:41;101710.69;;;-5.03;62.37
73453;BME280;61687;56.232;43.854;2023-11-19T08:36:07;101707.91;;;-5.08;62.50
73453;BME280;61687;56.232;43.854;2023-11-19T08:38:33;101713.28;;;-5.27;62.97
73453;BME280;61687;56.232;43.854;2023-11-19T08:40:59;101697.91;;;-5.32;62.90
73453;BME280;61687;56.232;43.854;2023-11-19T08:43:26;101704.16;;;-5.38;63.81
73453;BME280;61687;56.232;43.854;2023-11-19T08:45:52;101705.75;;;-5.18;63.56
73453;BME280;61687;56.232;43.854;2023-11-19T08:48:18;101702.69;;;-5.03;63.40
73453;BME280;61687;56.232;43.854;2023-11-19T08:50:43;101709.91;;;-5.04;63.42
73453;BME280;61687;56.232;43.854;2023-11-19T08:53:09;101710.31;;;-5.19;63.51
73453;BME280;61687;56.232;43.854;2023-11-19T08:55:37;101702.13;;;-5.24;64.11
73453;BME280;61687;56.232;43.854;2023-11-19T08:58:02;101706.00;;;-5.20;63.33
73453;BME280;61687;56.232;43.854;2023-11-19T09:00:28;101709.34;;;-5.24;63.09
73453;BME280;61687;56.232;43.854;2023-11-19T09:02:55;101706.97;;;-5.33;63.41
73453;BME280;61687;56.232;43.854;2023-11-19T09:05:21;101708.06;;;-5.22;63.22
73453;BME280;61687;56.232;43.854;2023-11-19T09:07:47;101704.41;;;-5.09;63.19
73453;BME280;61687;56.232;43.854;2023-11-19T09:10:14;101700.25;;;-5.05;63.57
73453;BME280;61687;56.232;43.854;2023-11-19T09:12:40;101710.13;;;-5.05;63.67
73453;BME280;61687;56.232;43.854;2023-11-19T09:15:06;101705.56;;;-5.17;63.79
73453;BME280;61687;56.232;43.854;2023-11-19T09:17:32;101695.63;;;-5.28;63.87
73453;BME280;61687;56.232;43.854;2023-11-19T09:19:58;101691.38;;;-5.17;63.40
73453;BME280;61687;56.232;43.854;2023-11-19T09:22:24;101685.22;;;-5.18;63.28
73453;BME280;61687;56.232;43.854;2023-11-19T09:24:50;101685.59;;;-5.33;63.78
73453;BME280;61687;56.232;43.854;2023-11-19T09:27:15;101683.44;;;-5.24;63.93
73453;BME280;61687;56.232;43.854;2023-11-19T09:29:41;101686.38;;;-5.13;63.09
73453;BME280;61687;56.232;43.854;2023-11-19T09:32:08;101692.50;;;-5.25;63.31
73453;BME280;61687;56.232;43.854;2023-11-19T09:34:34;101681.66;;;-5.30;63.26
73453;BME280;61687;56.232;43.854;2023-11-19T09:37:00;101678.50;;;-5.39;63.85
73453;BME280;61687;56.232;43.854;2023-11-19T09:39:27;101682.03;;;-5.26;63.67
73453;BME280;61687;56.232;43.854;2023-11-19T09:41:53;101689.56;;;-5.35;63.77
73453;BME280;61687;56.232;43.854;2023-11-19T09:44:19;101688.44;;;-5.27;63.80
73453;BME280;61687;56.232;43.854;2023-11-19T09:46:45;101687.38;;;-5.26;63.74
73453;BME280;61687;56.232;43.854;2023-11-19T09:49:13;101681.22;;;-5.27;63.68
73453;BME280;61687;56.232;43.854;2023-11-19T09:51:40;101692.44;;;-5.37;63.76
73453;BME280;61687;56.232;43.854;2023-11-19T09:54:06;101683.13;;;-5.65;64.65
73453;BME280;61687;56.232;43.854;2023-11-19T09:56:33;101680.59;;;-5.60;64.42
73453;BME280;61687;56.232;43.854;2023-11-19T09:58:59;101678.38;;;-5.63;64.66
73453;BME280;61687;56.232;43.854;2023-11-19T10:01:26;101681.97;;;-5.69;64.80
73453;BME280;61687;56.232;43.854;2023-11-19T10:03:54;101674.66;;;-5.62;64.54
73453;BME280;61687;56.232;43.854;2023-11-19T10:06:21;101683.19;;;-5.53;64.47
73453;BME280;61687;56.232;43.854;2023-11-19T10:08:47;101688.97;;;-5.37;64.26
73453;BME280;61687;56.232;43.854;2023-11-19T10:11:13;101698.31;;;-5.47;63.80
73453;BME280;61687;56.232;43.854;2023-11-19T10:13:39;101687.38;;;-5.57;63.91
73453;BME280;61687;56.232;43.854;2023-11-19T10:16:09;101691.53;;;-5.61;64.42
73453;BME280;61687;56.232;43.854;2023-11-19T10:18:37;101697.72;;;-5.49;64.21
73453;BME280;61687;56.232;43.854;2023-11-19T10:21:05;101691.34;;;-5.48;64.09
73453;BME280;61687;56.232;43.854;2023-11-19T10:23:53;101683.13;;;-5.65;64.27
73453;BME280;61687;56.232;43.854;2023-11-19T10:26:20;101677.13;;;-5.60;64.35
73453;BME280;61687;56.232;43.854;2023-11-19T10:28:47;101697.13;;;-5.51;64.11
73453;BME280;61687;56.232;43.854;2023-11-19T10:31:17;101685.03;;;-5.53;64.23
73453;BME280;61687;56.232;43.854;2023-11-19T10:33:44;101686.59;;;-5.46;63.84
73453;BME280;61687;56.232;43.854;2023-11-19T10:36:12;101685.09;;;-5.41;64.09
73453;BME280;61687;56.232;43.854;2023-11-19T10:38:39;101679.91;;;-5.36;63.69
73453;BME280;61687;56.232;43.854;2023-11-19T10:41:05;101681.84;;;-5.43;63.65
73453;BME280;61687;56.232;43.854;2023-11-19T10:43:31;101682.06;;;-5.45;63.55
73453;BME280;61687;56.232;43.854;2023-11-19T10:46:10;101684.75;;;-5.45;63.73
73453;BME280;61687;56.232;43.854;2023-11-19T10:48:38;101678.63;;;-5.34;63.83
73453;BME280;61687;56.232;43.854;2023-11-19T10:51:05;101678.09;;;-5.24;63.51
73453;BME280;61687;56.232;43.854;2023-11-19T10:53:37;101681.59;;;-5.23;63.25
73453;BME280;61687;56.232;43.854;2023-11-19T10:56:10;101684.94;;;-5.28;63.29
73453;BME280;61687;56.232;43.854;2023-11-19T10:58:37;101689.00;;;-5.25;63.01
73453;BME280;61687;56.232;43.854;2023-11-19T11:01:13;101691.44;;;-5.24;62.82
73453;BME280;61687;56.232;43.854;2023-11-19T11:03:40;101693.84;;;-5.34;62.80
73453;BME280;61687;56.232;43.854;2023-11-19T11:06:06;101701.38;;;-5.43;63.16
73453;BME280;61687;56.232;43.854;2023-11-19T11:08:37;101695.50;;;-5.52;63.38
73453;BME280;61687;56.232;43.854;2023-11-19T11:11:03;101696.56;;;-5.53;63.36
73453;BME280;61687;56.232;43.854;2023-11-19T11:13:31;101683.59;;;-5.86;64.42
73453;BME280;61687;56.232;43.854;2023-11-19T11:15:58;101681.00;;;-5.75;64.42
73453;BME280;61687;56.232;43.854;2023-11-19T11:18:24;101689.91;;;-5.62;63.53
73453;BME280;61687;56.232;43.854;2023-11-19T11:21:05;101681.97;;;-5.69;63.63
73453;BME280;61687;56.232;43.854;2023-11-19T11:24:08;101683.34;;;-5.66;63.63
73453;BME280;61687;56.232;43.854;2023-11-19T11:36:20;101682.84;;;-5.75;64.13
73453;BME280;61687;56.232;43.854;2023-11-19T11:38:49;101684.56;;;-5.81;63.99
73453;BME280;61687;56.232;43.854;2023-11-19T11:41:23;101686.47;;;-6.07;64.72
73453;BME280;61687;56.232;43.854;2023-11-19T11:43:53;101689.78;;;-6.05;65.01
73453;BME280;61687;56.232;43.854;2023-11-19T11:49:04;101677.13;;;-5.97;64.74
73453;BME280;61687;56.232;43.854;2023-11-19T11:54:30;101687.09;;;-6.05;64.93
73453;BME280;61687;56.232;43.854;2023-11-19T11:57:12;101688.41;;;-6.14;65.39
73453;BME280;61687;56.232;43.854;2023-11-19T12:02:09;101690.94;;;-5.82;64.61
73453;BME280;61687;56.232;43.854;2023-11-19T12:04:36;101687.59;;;-5.77;64.33
73453;BME280;61687;56.232;43.854;2023-11-19T12:07:16;101692.56;;;-5.81;64.33
73453;BME280;61687;56.232;43.854;2023-11-19T12:09:47;101693.81;;;-5.83;64.80
73453;BME280;61687;56.232;43.854;2023-11-19T12:20:04;101696.34;;;-5.51;64.41
73453;BME280;61687;56.232;43.854;2023-11-19T12:22:31;101695.66;;;-5.47;64.14
73453;BME280;61687;56.232;43.854;2023-11-19T12:24:58;101702.41;;;-5.44;63.86
73453;BME280;61687;56.232;43.854;2023-11-19T12:27:24;101698.63;;;-5.36;63.29
73453;BME280;61687;56.232;43.854;2023-11-19T12:29:52;101700.78;;;-5.45;63.29
73453;BME280;61687;56.232;43.854;2023-11-19T12:32:18;101699.69;;;-5.56;63.69
73453;BME280;61687;56.232;43.854;2023-11-19T12:34:45;101702.56;;;-5.57;63.78
73453;BME280;61687;56.232;43.854;2023-11-19T12:37:11;101700.72;;;-5.57;63.97
73453;BME280;61687;56.232;43.854;2023-11-19T12:39:37;101692.91;;;-5.58;63.98
73453;BME280;61687;56.232;43.854;2023-11-19T12:42:03;101692.84;;;-5.52;63.85
73453;BME280;61687;56.232;43.854;2023-11-19T12:44:29;101685.56;;;-5.63;64.08
73453;BME280;61687;56.232;43.854;2023-11-19T12:47:06;101692.38;;;-5.49;63.80
73453;BME280;61687;56.232;43.854;2023-11-19T12:49:33;101682.81;;;-5.56;63.78
73453;BME280;61687;56.232;43.854;2023-11-19T12:51:59;101676.97;;;-5.65;64.15
73453;BME280;61687;56.232;43.854;2023-11-19T12:54:33;101671.94;;;-5.55;63.76
73453;BME280;61687;56.232;43.854;2023-11-19T12:56:59;101666.88;;;-5.63;63.39
73453;BME280;61687;56.232;43.854;2023-11-19T12:59:25;101670.88;;;-5.54;63.64
73453;BME280;61687;56.232;43.854;2023-11-19T13:01:59;101656.16;;;-5.44;63.17
73453;BME280;61687;56.232;43.854;2023-11-19T13:04:29;101664.63;;;-5.48;63.31
73453;BME280;61687;56.232;43.854;2023-11-19T13:06:59;101661.38;;;-5.50;63.67
73453;BME280;61687;56.232;43.854;2023-11-19T13:09:26;101654.03;;;-5.54;64.04